Time;durP1;ratioP1;P1;durP2;ratioP2;P2;SDS_P1;SDS_P2;PMS_P1;PMS_P2;Temp;Humidity;BMP_temperature;BMP_pressure;BME280_temperature;BME280_humidity;BME280_pressure;Samples;Min_cycle;Max_cycle;Signal;HPM_P1;HPM_P2
2023/10/07 00:01:24;;;;;;;5.50;3.67;;;;;;;;;;5015396;28;20306;-86
2023/10/07 00:03:53;;;;;;;4.37;3.80;;;;;;;;;;5015785;28;20651;-87
2023/10/07 00:06:25;;;;;;;4.20;3.77;;;;;;;;;;5014336;28;20329;-86
2023/10/07 00:08:52;;;;;;;5.00;3.70;;;;;;;;;;5016479;28;20187;-86
2023/10/07 00:11:19;;;;;;;5.57;4.60;;;;;;;;;;5023353;28;20225;-86
2023/10/07 00:13:47;;;;;;;8.73;4.10;;;;;;;;;;5016953;28;20197;-87
2023/10/07 00:16:17;;;;;;;6.63;3.97;;;;;;;;;;5013907;28;20232;-87
2023/10/07 00:18:43;;;;;;;4.63;4.03;;;;;;;;;;5015598;28;20971;-87
2023/10/07 00:21:15;;;;;;;6.33;3.87;;;;;;;;;;4995543;28;20194;-86
2023/10/07 00:23:42;;;;;;;5.43;3.47;;;;;;;;;;5015259;28;20187;-85
2023/10/07 00:26:09;;;;;;;4.00;3.43;;;;;;;;;;5013939;28;20206;-86
2023/10/07 00:28:36;;;;;;;5.27;3.63;;;;;;;;;;5008735;28;20269;-86
2023/10/07 00:31:22;;;;;;;3.90;3.13;;;;;;;;;;5012833;28;20186;-85
2023/10/07 00:34:03;;;;;;;4.83;3.50;;;;;;;;;;5012872;28;20198;-86
2023/10/07 00:38:59;;;;;;;4.43;3.33;;;;;;;;;;5014841;28;20218;-85
2023/10/07 00:41:36;;;;;;;4.10;2.97;;;;;;;;;;5012800;28;20194;-86
2023/10/07 00:44:17;;;;;;;3.20;2.90;;;;;;;;;;5011394;28;20193;-86
2023/10/07 00:46:45;;;;;;;4.70;3.20;;;;;;;;;;5010842;28;20186;-90
2023/10/07 00:49:20;;;;;;;5.30;4.07;;;;;;;;;;4993065;28;20701;-87
2023/10/07 00:51:46;;;;;;;6.93;3.60;;;;;;;;;;5011072;28;20209;-86
2023/10/07 00:54:18;;;;;;;5.27;3.40;;;;;;;;;;5015159;28;20190;-87
2023/10/07 00:57:04;;;;;;;6.03;3.53;;;;;;;;;;4992239;28;20250;-86
2023/10/07 00:59:31;;;;;;;3.80;3.30;;;;;;;;;;5013588;28;20178;-86
2023/10/07 01:01:58;;;;;;;4.80;3.10;;;;;;;;;;5012818;28;20517;-87
2023/10/07 01:04:24;;;;;;;5.37;3.13;;;;;;;;;;5013227;28;20198;-87
2023/10/07 01:07:00;;;;;;;3.50;3.20;;;;;;;;;;5015317;28;20285;-85
2023/10/07 01:09:28;;;;;;;3.50;3.20;;;;;;;;;;4997159;28;20191;-86
2023/10/07 01:11:57;;;;;;;5.17;3.53;;;;;;;;;;5016300;28;20249;-86
2023/10/07 01:14:27;;;;;;;3.77;3.27;;;;;;;;;;5014726;28;20254;-87
2023/10/07 01:16:54;;;;;;;3.77;3.37;;;;;;;;;;5013285;28;20718;-85
2023/10/07 01:19:36;;;;;;;4.57;3.30;;;;;;;;;;5015804;28;20179;-85
2023/10/07 01:22:12;;;;;;;5.63;3.57;;;;;;;;;;4991545;28;20282;-87
2023/10/07 01:27:18;;;;;;;4.20;3.10;;;;;;;;;;5011663;28;20257;-87
2023/10/07 01:29:49;;;;;;;3.87;3.10;;;;;;;;;;4991989;28;20669;-86
2023/10/07 01:32:19;;;;;;;5.60;3.27;;;;;;;;;;5009610;28;20206;-86
2023/10/07 01:34:51;;;;;;;4.50;3.10;;;;;;;;;;5010608;28;20221;-86
2023/10/07 01:37:21;;;;;;;5.47;2.83;;;;;;;;;;5008408;28;20551;-86
2023/10/07 01:39:49;;;;;;;5.27;3.50;;;;;;;;;;4990967;28;20602;-86
2023/10/07 01:42:23;;;;;;;3.77;3.10;;;;;;;;;;5010632;28;20182;-86
2023/10/07 01:44:55;;;;;;;4.27;3.57;;;;;;;;;;4994050;28;20182;-87
2023/10/07 01:47:25;;;;;;;4.17;3.60;;;;;;;;;;4994293;28;20560;-86
2023/10/07 01:49:56;;;;;;;4.20;3.37;;;;;;;;;;5009528;28;20187;-86
2023/10/07 01:52:32;;;;;;;4.67;3.00;;;;;;;;;;4991873;28;20282;-85
2023/10/07 01:54:59;;;;;;;4.80;3.47;;;;;;;;;;5006881;28;20179;-84
2023/10/07 01:57:26;;;;;;;6.30;3.67;;;;;;;;;;5013433;28;20233;-86
2023/10/07 01:59:52;;;;;;;4.90;3.27;;;;;;;;;;5009808;28;20189;-86
2023/10/07 02:02:25;;;;;;;3.90;3.13;;;;;;;;;;5010208;28;20262;-85
2023/10/07 02:04:54;;;;;;;4.77;3.23;;;;;;;;;;5010724;28;20179;-85
2023/10/07 02:07:21;;;;;;;6.43;3.67;;;;;;;;;;5008892;28;20183;-86
2023/10/07 02:09:49;;;;;;;5.40;3.53;;;;;;;;;;5010424;28;20602;-87
2023/10/07 02:12:18;;;;;;;7.87;3.07;;;;;;;;;;5009030;28;20179;-87
2023/10/07 02:14:44;;;;;;;4.67;3.60;;;;;;;;;;5010302;28;20201;-86
2023/10/07 02:17:15;;;;;;;5.30;3.60;;;;;;;;;;5009127;28;20651;-85
2023/10/07 02:19:44;;;;;;;6.37;3.73;;;;;;;;;;4994785;28;20625;-86
2023/10/07 02:22:21;;;;;;;3.93;3.40;;;;;;;;;;4990331;28;20179;-87
2023/10/07 02:25:02;;;;;;;4.37;3.07;;;;;;;;;;5014442;28;20285;-86
2023/10/07 02:27:37;;;;;;;4.97;3.50;;;;;;;;;;4992463;28;20560;-86
2023/10/07 02:30:04;;;;;;;3.97;3.53;;;;;;;;;;5011329;28;20166;-86
2023/10/07 02:32:32;;;;;;;6.03;3.10;;;;;;;;;;5011385;28;20217;-86
2023/10/07 02:35:00;;;;;;;4.03;3.30;;;;;;;;;;5012320;28;20290;-85
2023/10/07 02:37:30;;;;;;;5.50;3.60;;;;;;;;;;4996620;28;20206;-86
2023/10/07 02:40:01;;;;;;;4.83;4.17;;;;;;;;;;5009451;28;20217;-85
2023/10/07 02:42:28;;;;;;;4.20;3.30;;;;;;;;;;5013328;28;20183;-85
2023/10/07 02:47:47;;;;;;;4.70;3.70;;;;;;;;;;5015758;28;20195;-86
2023/10/07 02:50:13;;;;;;;4.00;3.27;;;;;;;;;;5008248;28;20213;-88
2023/10/07 02:52:40;;;;;;;4.43;3.40;;;;;;;;;;5010349;28;20187;-86
2023/10/07 02:57:45;;;;;;;4.13;3.70;;;;;;;;;;5014682;28;20218;-85
2023/10/07 03:00:18;;;;;;;5.50;3.47;;;;;;;;;;5013905;28;20190;-87
2023/10/07 03:02:50;;;;;;;6.47;3.50;;;;;;;;;;5010654;28;20194;-87
2023/10/07 03:05:27;;;;;;;5.57;3.80;;;;;;;;;;5013152;28;20180;-86
2023/10/07 03:08:02;;;;;;;4.60;3.50;;;;;;;;;;5014297;28;20186;-87
2023/10/07 03:13:19;;;;;;;4.50;4.07;;;;;;;;;;4999389;28;20515;-86
2023/10/07 03:15:46;;;;;;;7.20;4.10;;;;;;;;;;5014259;28;20285;-86
2023/10/07 03:18:22;;;;;;;6.10;4.80;;;;;;;;;;5017319;28;20242;-87
2023/10/07 03:21:00;;;;;;;5.27;3.60;;;;;;;;;;5015061;28;20175;-86
2023/10/07 03:23:33;;;;;;;5.17;3.60;;;;;;;;;;4996783;28;20280;-86
2023/10/07 03:28:26;;;;;;;7.20;4.47;;;;;;;;;;5013304;28;20322;-85
2023/10/07 03:30:52;;;;;;;5.03;3.80;;;;;;;;;;5015670;28;20213;-87
2023/10/07 03:34:08;;;;;;;5.23;4.80;;;;;;;;;;5003290;28;20199;-86
2023/10/07 03:36:31;;;;;;;5.80;4.30;;;;;;;;;;4999495;28;20193;-85
2023/10/07 03:39:16;;;;;;;7.00;4.27;;;;;;;;;;5012113;28;20218;-88
2023/10/07 03:41:51;;;;;;;4.97;4.27;;;;;;;;;;4990038;28;20317;-86
2023/10/07 03:44:18;;;;;;;6.67;4.07;;;;;;;;;;4995566;28;20237;-86
2023/10/07 03:46:47;;;;;;;4.97;3.60;;;;;;;;;;5014050;28;20198;-86
2023/10/07 03:49:15;;;;;;;4.07;3.63;;;;;;;;;;5010141;28;20203;-86
2023/10/07 03:51:41;;;;;;;7.13;4.40;;;;;;;;;;5015395;28;20622;-86
2023/10/07 03:54:12;;;;;;;5.00;4.47;;;;;;;;;;5020990;28;20189;-86
2023/10/07 03:56:38;;;;;;;4.60;4.10;;;;;;;;;;5017422;28;20218;-86
2023/10/07 03:59:07;;;;;;;7.13;4.30;;;;;;;;;;5020250;28;20223;-86
2023/10/07 04:01:35;;;;;;;6.23;4.40;;;;;;;;;;5030996;28;20216;-87
2023/10/07 04:04:01;;;;;;;6.57;4.33;;;;;;;;;;5032186;28;20225;-87
2023/10/07 04:06:31;;;;;;;4.23;3.73;;;;;;;;;;5032487;28;20174;-89
2023/10/07 04:09:07;;;;;;;6.43;4.10;;;;;;;;;;5008015;28;20246;-88
2023/10/07 04:11:37;;;;;;;5.70;4.00;;;;;;;;;;5031904;28;20193;-86
2023/10/07 04:14:46;;;;;;;5.43;3.80;;;;;;;;;;5032868;28;20182;-87
2023/10/07 04:16:54;;;;;;;6.30;4.10;;;;;;;;;;5021404;28;20199;-89
2023/10/07 04:21:50;;;;;;;5.73;4.50;;;;;;;;;;5029951;28;20195;-88
2023/10/07 04:24:18;;;;;;;5.53;4.20;;;;;;;;;;5027568;28;20185;-87
2023/10/07 04:26:54;;;;;;;5.63;4.30;;;;;;;;;;5021855;28;20216;-87
2023/10/07 04:29:21;;;;;;;6.47;5.37;;;;;;;;;;5010721;28;20273;-86
2023/10/07 04:31:47;;;;;;;5.47;4.43;;;;;;;;;;5021082;28;20182;-86
2023/10/07 04:34:18;;;;;;;5.57;4.30;;;;;;;;;;5016021;28;20190;-85
2023/10/07 04:39:28;;;;;;;7.23;5.00;;;;;;;;;;5015117;28;20261;-86
2023/10/07 04:41:59;;;;;;;7.90;4.80;;;;;;;;;;4994819;28;20669;-88
2023/10/07 04:47:34;;;;;;;8.53;4.77;;;;;;;;;;5019502;28;20225;-87
2023/10/07 04:50:07;;;;;;;6.70;4.20;;;;;;;;;;5007254;28;20181;-87
2023/10/07 04:52:39;;;;;;;6.23;5.03;;;;;;;;;;5004634;28;20634;-87
2023/10/07 04:55:11;;;;;;;8.40;4.83;;;;;;;;;;5008324;28;20196;-87
2023/10/07 05:02:59;;;;;;;6.80;4.50;;;;;;;;;;5014440;28;20182;-86
2023/10/07 05:05:28;;;;;;;4.00;3.60;;;;;;;;;;5015279;28;20190;-88
2023/10/07 05:07:58;;;;;;;6.33;4.67;;;;;;;;;;5012271;28;20194;-86
2023/10/07 05:10:28;;;;;;;5.20;4.50;;;;;;;;;;5014172;28;20296;-86
2023/10/07 05:12:55;;;;;;;5.70;4.80;;;;;;;;;;5014881;28;20185;-86
2023/10/07 05:15:21;;;;;;;7.37;4.77;;;;;;;;;;4993798;28;20202;-86
2023/10/07 05:17:51;;;;;;;5.20;4.67;;;;;;;;;;5009510;28;20222;-86
2023/10/07 05:20:27;;;;;;;6.23;4.53;;;;;;;;;;5011074;28;20217;-88
2023/10/07 05:22:53;;;;;;;6.47;4.83;;;;;;;;;;5010417;28;20229;-87
2023/10/07 05:25:21;;;;;;;7.13;4.47;;;;;;;;;;5005923;28;20181;-86
2023/10/07 05:27:47;;;;;;;5.97;4.33;;;;;;;;;;4992380;28;20192;-86
2023/10/07 05:30:15;;;;;;;6.73;5.43;;;;;;;;;;5011113;28;20185;-87
2023/10/07 05:32:42;;;;;;;5.73;4.37;;;;;;;;;;5012341;28;20309;-86
2023/10/07 05:35:08;;;;;;;8.20;4.97;;;;;;;;;;5012225;28;20189;-85
2023/10/07 05:37:34;;;;;;;8.67;4.57;;;;;;;;;;5004337;28;20637;-86
2023/10/07 05:40:03;;;;;;;4.43;3.97;;;;;;;;;;5011726;28;20668;-86
2023/10/07 05:42:29;;;;;;;6.90;4.43;;;;;;;;;;4991772;28;20207;-87
2023/10/07 05:44:55;;;;;;;5.83;4.60;;;;;;;;;;5011959;28;20183;-86
2023/10/07 05:47:21;;;;;;;5.07;4.53;;;;;;;;;;5011548;28;20185;-86
2023/10/07 05:49:48;;;;;;;6.80;4.30;;;;;;;;;;5007341;28;20262;-86
2023/10/07 05:52:14;;;;;;;6.13;4.33;;;;;;;;;;5005492;28;20499;-87
2023/10/07 05:54:40;;;;;;;6.17;4.47;;;;;;;;;;5010737;28;20253;-86
2023/10/07 05:57:08;;;;;;;4.83;4.00;;;;;;;;;;5010900;28;20664;-85
2023/10/07 05:59:35;;;;;;;5.80;4.13;;;;;;;;;;5013732;28;20194;-88
2023/10/07 06:02:05;;;;;;;7.47;5.20;;;;;;;;;;5015235;28;20205;-86
2023/10/07 06:04:31;;;;;;;5.13;4.27;;;;;;;;;;5009787;28;20240;-86
2023/10/07 06:06:57;;;;;;;6.23;3.90;;;;;;;;;;5015570;28;20178;-85
2023/10/07 06:09:24;;;;;;;5.43;3.70;;;;;;;;;;5018313;28;20259;-88
2023/10/07 06:11:50;;;;;;;5.87;4.20;;;;;;;;;;5016234;28;20186;-87
2023/10/07 06:14:18;;;;;;;5.50;3.77;;;;;;;;;;5013954;28;20221;-86
2023/10/07 06:16:45;;;;;;;5.03;3.93;;;;;;;;;;5014817;28;20688;-86
2023/10/07 06:19:14;;;;;;;4.60;4.07;;;;;;;;;;5018306;28;20174;-86
2023/10/07 06:21:56;;;;;;;5.63;4.10;;;;;;;;;;5016388;28;20186;-86
2023/10/07 06:24:23;;;;;;;4.13;3.73;;;;;;;;;;5015741;28;20175;-87
2023/10/07 06:26:53;;;;;;;4.50;3.87;;;;;;;;;;5012433;28;20300;-85
2023/10/07 06:29:19;;;;;;;5.77;4.20;;;;;;;;;;5019057;28;20190;-87
2023/10/07 06:31:55;;;;;;;5.10;4.07;;;;;;;;;;5017435;28;20506;-86
2023/10/07 06:34:26;;;;;;;6.80;4.40;;;;;;;;;;5017839;28;20523;-85
2023/10/07 06:36:54;;;;;;;4.83;4.40;;;;;;;;;;5015549;28;20269;-88
2023/10/07 06:39:27;;;;;;;7.30;4.53;;;;;;;;;;5020323;28;20559;-87
2023/10/07 06:41:55;;;;;;;4.90;3.67;;;;;;;;;;5007566;28;20179;-87
2023/10/07 06:44:23;;;;;;;6.43;4.30;;;;;;;;;;5019741;28;20717;-87
2023/10/07 06:46:55;;;;;;;5.20;4.03;;;;;;;;;;5020844;28;20213;-87
2023/10/07 06:49:22;;;;;;;6.13;4.60;;;;;;;;;;5020126;28;20494;-87
2023/10/07 06:51:54;;;;;;;9.77;5.27;;;;;;;;;;5021432;28;20340;-86
2023/10/07 06:54:21;;;;;;;6.97;4.73;;;;;;;;;;5019808;28;20182;-86
2023/10/07 06:56:50;;;;;;;8.60;5.57;;;;;;;;;;5021640;28;20666;-86
2023/10/07 06:59:16;;;;;;;7.60;5.23;;;;;;;;;;5011635;28;20183;-88
2023/10/07 07:04:14;;;;;;;11.37;5.67;;;;;;;;;;5022843;28;20190;-87
2023/10/07 07:06:44;;;;;;;11.27;4.80;;;;;;;;;;5005075;28;20209;-87
2023/10/07 07:12:03;;;;;;;9.23;5.40;;;;;;;;;;5019479;28;20264;-88
2023/10/07 07:14:33;;;;;;;6.83;4.90;;;;;;;;;;5019018;28;20214;-89
2023/10/07 07:17:29;;;;;;;6.70;4.80;;;;;;;;;;5015380;28;20554;-88
2023/10/07 07:20:48;;;;;;;7.13;5.20;;;;;;;;;;5016990;28;20182;-88
2023/10/07 07:22:45;;;;;;;5.70;4.63;;;;;;;;;;5006446;28;20250;-88
2023/10/07 07:25:12;;;;;;;5.07;4.23;;;;;;;;;;5020395;28;20178;-88
2023/10/07 07:27:45;;;;;;;5.60;4.50;;;;;;;;;;5018732;28;20868;-88
2023/10/07 07:30:19;;;;;;;10.90;6.17;;;;;;;;;;5020580;28;20249;-88
2023/10/07 07:32:46;;;;;;;9.67;5.37;;;;;;;;;;5017465;28;20256;-88
2023/10/07 07:35:13;;;;;;;10.37;4.80;;;;;;;;;;5016276;28;20183;-89
2023/10/07 07:37:40;;;;;;;6.77;4.63;;;;;;;;;;5018385;28;20340;-86
2023/10/07 07:40:28;;;;;;;8.30;4.43;;;;;;;;;;5001871;28;20191;-88
2023/10/07 07:42:55;;;;;;;6.00;4.37;;;;;;;;;;5000717;28;20209;-88
2023/10/07 07:45:26;;;;;;;6.67;5.10;;;;;;;;;;4999355;28;20183;-87
2023/10/07 07:47:53;;;;;;;7.00;4.33;;;;;;;;;;5016379;28;20661;-87
2023/10/07 07:50:19;;;;;;;8.37;4.80;;;;;;;;;;5016629;28;20168;-87
2023/10/07 07:52:49;;;;;;;9.03;5.20;;;;;;;;;;5015553;28;20292;-87
2023/10/07 07:55:19;;;;;;;8.83;4.73;;;;;;;;;;5015867;28;20199;-88
2023/10/07 07:57:45;;;;;;;9.87;4.60;;;;;;;;;;5015060;28;20212;-88
2023/10/07 08:00:20;;;;;;;7.00;4.77;;;;;;;;;;5015771;28;20182;-87
2023/10/07 08:02:49;;;;;;;6.53;4.70;;;;;;;;;;4998563;28;20239;-87
2023/10/07 08:05:16;;;;;;;6.30;4.43;;;;;;;;;;5016171;28;20611;-88
2023/10/07 08:07:43;;;;;;;7.90;4.83;;;;;;;;;;5015539;28;20291;-85
2023/10/07 08:10:10;;;;;;;10.67;4.70;;;;;;;;;;4997765;28;20241;-87
2023/10/07 08:12:37;;;;;;;7.57;5.13;;;;;;;;;;5000715;28;20753;-86
2023/10/07 08:17:40;;;;;;;9.87;4.93;;;;;;;;;;5010459;28;20307;-87
2023/10/07 08:20:12;;;;;;;8.90;4.90;;;;;;;;;;5017629;28;20254;-86
2023/10/07 08:22:45;;;;;;;8.93;5.30;;;;;;;;;;5013987;28;20242;-86
2023/10/07 08:25:16;;;;;;;8.00;4.90;;;;;;;;;;5015349;28;20190;-88
2023/10/07 08:27:49;;;;;;;7.30;4.53;;;;;;;;;;5021871;28;20186;-87
2023/10/07 08:30:29;;;;;;;10.37;4.57;;;;;;;;;;5000183;28;20197;-88
2023/10/07 08:32:55;;;;;;;12.97;5.50;;;;;;;;;;5016561;28;20182;-86
2023/10/07 08:35:25;;;;;;;9.13;5.50;;;;;;;;;;5016428;28;20190;-87
2023/10/07 08:37:53;;;;;;;9.03;4.47;;;;;;;;;;5017072;28;20210;-88
2023/10/07 08:40:27;;;;;;;7.17;5.03;;;;;;;;;;5018367;28;20174;-87
2023/10/07 08:43:00;;;;;;;7.20;4.80;;;;;;;;;;5014089;28;20201;-87
2023/10/07 08:45:28;;;;;;;8.23;4.90;;;;;;;;;;5012630;28;20684;-88
2023/10/07 08:48:08;;;;;;;9.60;4.93;;;;;;;;;;5017381;28;20232;-87
2023/10/07 08:50:59;;;;;;;9.77;5.47;;;;;;;;;;5016403;28;20285;-87
2023/10/07 08:53:25;;;;;;;7.87;5.57;;;;;;;;;;5018443;28;20254;-87
2023/10/07 08:55:54;;;;;;;7.73;5.17;;;;;;;;;;5013892;28;20674;-88
2023/10/07 08:58:25;;;;;;;7.50;5.67;;;;;;;;;;5015959;28;20564;-86
2023/10/07 09:00:52;;;;;;;6.10;4.40;;;;;;;;;;5013288;28;20179;-87
2023/10/07 09:03:19;;;;;;;6.20;4.50;;;;;;;;;;5014493;28;20201;-87
2023/10/07 09:05:49;;;;;;;7.53;4.80;;;;;;;;;;5013253;28;20650;-88
2023/10/07 09:08:15;;;;;;;8.73;4.73;;;;;;;;;;4995026;28;20193;-88
2023/10/07 09:10:45;;;;;;;8.63;5.30;;;;;;;;;;4992108;28;20595;-89
2023/10/07 09:13:26;;;;;;;6.60;4.77;;;;;;;;;;5014540;28;20256;-87
2023/10/07 09:15:53;;;;;;;7.43;5.27;;;;;;;;;;5014586;28;20265;-89
2023/10/07 09:18:27;;;;;;;7.67;4.80;;;;;;;;;;5014692;28;20202;-89
2023/10/07 09:20:56;;;;;;;8.67;5.40;;;;;;;;;;5013767;28;20190;-89
2023/10/07 09:23:33;;;;;;;5.90;4.70;;;;;;;;;;5013307;28;20226;-88
2023/10/07 09:26:16;;;;;;;9.67;4.97;;;;;;;;;;5009749;28;20620;-88
2023/10/07 09:28:46;;;;;;;6.87;4.50;;;;;;;;;;5012816;28;20237;-88
2023/10/07 09:31:15;;;;;;;7.20;4.93;;;;;;;;;;5013163;28;20282;-88
2023/10/07 09:33:43;;;;;;;6.87;4.53;;;;;;;;;;5020247;28;20716;-89
2023/10/07 09:41:38;;;;;;;5.43;4.70;;;;;;;;;;5015368;28;20397;-90
2023/10/07 09:44:13;;;;;;;8.17;5.10;;;;;;;;;;5015877;28;20190;-89
2023/10/07 09:46:40;;;;;;;7.13;4.87;;;;;;;;;;5013086;28;20685;-85
2023/10/07 09:49:06;;;;;;;9.67;4.50;;;;;;;;;;5009702;28;20407;-86
2023/10/07 09:51:41;;;;;;;7.60;4.73;;;;;;;;;;5011569;28;20187;-86
2023/10/07 09:54:37;;;;;;;6.20;4.43;;;;;;;;;;5014115;28;20216;-86
2023/10/07 09:57:22;;;;;;;13.70;5.10;;;;;;;;;;5014389;28;20685;-89
2023/10/07 09:59:51;;;;;;;6.93;5.00;;;;;;;;;;5016022;28;20193;-89
2023/10/07 10:02:25;;;;;;;10.17;4.83;;;;;;;;;;5015446;28;20182;-88
2023/10/07 10:05:05;;;;;;;18.10;5.73;;;;;;;;;;5012219;28;20181;-88
2023/10/07 10:07:40;;;;;;;6.70;4.87;;;;;;;;;;5011081;28;20193;-90
2023/10/07 10:10:16;;;;;;;8.17;4.57;;;;;;;;;;5014611;28;20588;-90
2023/10/07 10:18:40;;;;;;;7.63;4.20;;;;;;;;;;5029922;28;20198;-90
2023/10/07 10:21:12;;;;;;;6.50;4.90;;;;;;;;;;5019538;28;20244;-90
2023/10/07 10:23:44;;;;;;;6.80;4.30;;;;;;;;;;5015471;28;20237;-88
2023/10/07 10:26:14;;;;;;;5.10;4.50;;;;;;;;;;5018558;28;20217;-88
2023/10/07 10:28:45;;;;;;;9.30;4.63;;;;;;;;;;4999668;28;20471;-88
2023/10/07 10:31:21;;;;;;;4.80;3.83;;;;;;;;;;4999117;28;20187;-89
2023/10/07 10:33:52;;;;;;;5.43;4.17;;;;;;;;;;5016850;28;20197;-89
2023/10/07 10:36:24;;;;;;;6.70;4.40;;;;;;;;;;5012306;28;20266;-88
2023/10/07 10:38:50;;;;;;;11.00;4.43;;;;;;;;;;5017007;28;20206;-89
2023/10/07 10:41:29;;;;;;;6.70;3.80;;;;;;;;;;5016606;28;20181;-88
2023/10/07 10:44:06;;;;;;;6.03;4.63;;;;;;;;;;4997912;28;20273;-89
2023/10/07 10:46:44;;;;;;;7.23;4.23;;;;;;;;;;5014908;28;20180;-88
2023/10/07 10:49:11;;;;;;;7.10;4.07;;;;;;;;;;4998573;28;20269;-89
2023/10/07 10:51:43;;;;;;;7.23;4.10;;;;;;;;;;5013475;28;20285;-87
2023/10/07 10:54:09;;;;;;;6.13;3.77;;;;;;;;;;5012895;28;20200;-87
2023/10/07 10:56:44;;;;;;;5.37;3.80;;;;;;;;;;5007668;28;20223;-86
2023/10/07 10:59:10;;;;;;;4.83;4.17;;;;;;;;;;5006210;28;20198;-88
2023/10/07 11:01:43;;;;;;;5.97;3.63;;;;;;;;;;4996090;28;20183;-89
2023/10/07 11:04:12;;;;;;;8.20;3.90;;;;;;;;;;5012413;28;20265;-90
2023/10/07 11:06:38;;;;;;;7.33;4.67;;;;;;;;;;5015548;28;20199;-89
2023/10/07 11:09:05;;;;;;;5.47;3.87;;;;;;;;;;5015212;28;20277;-89
2023/10/07 11:11:35;;;;;;;5.17;3.87;;;;;;;;;;5014782;28;20214;-88
2023/10/07 11:14:06;;;;;;;7.23;4.00;;;;;;;;;;5008399;28;20201;-89
2023/10/07 11:16:32;;;;;;;4.97;4.10;;;;;;;;;;5014461;28;20208;-89
2023/10/07 11:18:58;;;;;;;6.50;3.70;;;;;;;;;;4997464;28;20277;-88
2023/10/07 11:21:24;;;;;;;5.57;3.90;;;;;;;;;;5015544;28;20185;-89
2023/10/07 11:23:53;;;;;;;3.90;3.50;;;;;;;;;;4995749;28;20194;-90
2023/10/07 11:26:24;;;;;;;6.50;3.83;;;;;;;;;;5012858;28;20175;-86
2023/10/07 11:28:51;;;;;;;4.87;3.70;;;;;;;;;;5009067;28;20201;-86
2023/10/07 11:31:28;;;;;;;5.27;3.67;;;;;;;;;;5014754;28;20292;-86
2023/10/07 11:33:54;;;;;;;5.60;3.60;;;;;;;;;;5014991;28;20188;-86
2023/10/07 11:36:20;;;;;;;4.90;3.70;;;;;;;;;;5010947;28;20617;-86
2023/10/07 11:38:46;;;;;;;4.70;3.63;;;;;;;;;;4993181;28;20281;-87
2023/10/07 11:41:12;;;;;;;5.13;3.70;;;;;;;;;;5010298;28;20187;-90
2023/10/07 11:43:43;;;;;;;4.63;3.40;;;;;;;;;;5015947;28;20178;-86
2023/10/07 11:46:11;;;;;;;5.20;3.83;;;;;;;;;;5007847;28;20185;-89
2023/10/07 11:48:41;;;;;;;5.87;3.33;;;;;;;;;;5008757;28;20183;-86
2023/10/07 11:51:07;;;;;;;4.87;3.20;;;;;;;;;;5008209;28;20574;-86
2023/10/07 11:53:34;;;;;;;4.37;3.43;;;;;;;;;;5018052;28;20198;-86
2023/10/07 11:56:05;;;;;;;4.47;3.40;;;;;;;;;;4997093;28;20234;-88
2023/10/07 11:58:32;;;;;;;4.03;3.73;;;;;;;;;;5017317;28;20215;-86
2023/10/07 12:01:02;;;;;;;4.40;3.43;;;;;;;;;;5025484;28;20174;-87
2023/10/07 12:03:30;;;;;;;4.93;3.77;;;;;;;;;;5024822;28;20167;-87
2023/10/07 12:05:58;;;;;;;4.33;3.50;;;;;;;;;;5032284;28;20179;-87
2023/10/07 12:08:24;;;;;;;4.93;3.70;;;;;;;;;;5032407;28;20206;-88
2023/10/07 12:10:51;;;;;;;4.83;4.00;;;;;;;;;;5032172;28;20184;-86
2023/10/07 12:13:19;;;;;;;4.43;3.77;;;;;;;;;;5032388;28;20325;-88
2023/10/07 12:15:45;;;;;;;3.93;3.20;;;;;;;;;;5032949;28;20234;-88
2023/10/07 12:18:16;;;;;;;4.03;3.43;;;;;;;;;;5033539;28;20206;-87
2023/10/07 12:20:42;;;;;;;5.27;3.37;;;;;;;;;;5032493;28;20178;-87
2023/10/07 12:23:09;;;;;;;4.83;4.20;;;;;;;;;;5032501;28;20175;-87
2023/10/07 12:25:38;;;;;;;5.13;3.37;;;;;;;;;;5024254;28;20230;-88
2023/10/07 12:28:08;;;;;;;4.07;3.33;;;;;;;;;;5031961;28;20197;-88
2023/10/07 12:30:34;;;;;;;5.67;4.23;;;;;;;;;;5032096;28;20162;-87
2023/10/07 12:33:02;;;;;;;5.87;4.10;;;;;;;;;;5009745;28;20187;-87
2023/10/07 12:35:34;;;;;;;8.10;4.33;;;;;;;;;;5031965;28;20234;-88
2023/10/07 12:38:00;;;;;;;6.10;4.70;;;;;;;;;;5030336;28;20199;-88
2023/10/07 12:40:30;;;;;;;6.17;4.87;;;;;;;;;;5031261;28;20246;-88
2023/10/07 12:42:56;;;;;;;6.07;4.70;;;;;;;;;;5025926;28;20239;-88
2023/10/07 12:45:23;;;;;;;5.83;4.20;;;;;;;;;;5027106;28;20200;-87
2023/10/07 12:47:54;;;;;;;4.83;4.20;;;;;;;;;;5030070;28;20214;-87
2023/10/07 12:50:23;;;;;;;5.27;4.37;;;;;;;;;;5029552;28;20221;-86
2023/10/07 12:52:54;;;;;;;7.90;4.53;;;;;;;;;;5012498;28;20198;-87
2023/10/07 12:55:21;;;;;;;6.43;3.87;;;;;;;;;;5030705;28;20182;-88
2023/10/07 12:57:49;;;;;;;5.40;4.23;;;;;;;;;;5027157;28;20198;-88
2023/10/07 13:00:33;;;;;;;5.97;4.27;;;;;;;;;;5030252;28;20193;-89
2023/10/07 13:03:04;;;;;;;4.63;4.10;;;;;;;;;;5024295;28;20163;-88
2023/10/07 13:05:37;;;;;;;8.93;4.43;;;;;;;;;;5024255;28;20247;-89
2023/10/07 13:08:08;;;;;;;4.47;3.53;;;;;;;;;;5018731;28;20484;-89
2023/10/07 13:10:35;;;;;;;3.97;3.23;;;;;;;;;;5009267;28;20709;-88
2023/10/07 13:13:04;;;;;;;4.20;3.80;;;;;;;;;;5009441;28;20270;-88
2023/10/07 13:15:37;;;;;;;3.97;3.47;;;;;;;;;;5017436;28;20506;-89
2023/10/07 13:18:03;;;;;;;4.53;3.90;;;;;;;;;;5017440;28;20274;-88
2023/10/07 13:20:33;;;;;;;4.77;3.97;;;;;;;;;;5010950;28;20181;-87
2023/10/07 13:23:01;;;;;;;4.33;3.93;;;;;;;;;;5015486;28;20189;-86
2023/10/07 13:25:27;;;;;;;12.93;5.20;;;;;;;;;;5026063;28;20230;-88
2023/10/07 13:27:57;;;;;;;7.17;4.33;;;;;;;;;;5031564;28;20547;-88
2023/10/07 13:30:24;;;;;;;6.73;4.03;;;;;;;;;;5016865;28;20220;-88
2023/10/07 13:32:52;;;;;;;5.90;3.93;;;;;;;;;;5024450;28;20260;-88
2023/10/07 13:35:19;;;;;;;7.63;4.37;;;;;;;;;;5029560;28;20186;-89
2023/10/07 13:37:52;;;;;;;3.77;3.40;;;;;;;;;;5023709;28;20225;-89
2023/10/07 13:40:19;;;;;;;5.87;3.63;;;;;;;;;;5028446;28;20178;-89
2023/10/07 13:42:55;;;;;;;6.63;4.13;;;;;;;;;;5028949;28;20191;-87
2023/10/07 13:45:22;;;;;;;6.77;4.70;;;;;;;;;;5007882;28;20181;-90
2023/10/07 13:47:54;;;;;;;8.67;4.93;;;;;;;;;;5015615;28;20216;-88
2023/10/07 13:50:20;;;;;;;6.27;3.67;;;;;;;;;;5009486;28;20206;-88
2023/10/07 13:52:50;;;;;;;7.13;3.97;;;;;;;;;;5004763;28;20267;-88
2023/10/07 13:55:33;;;;;;;4.97;3.73;;;;;;;;;;5012231;28;20272;-87
2023/10/07 13:58:00;;;;;;;5.37;3.70;;;;;;;;;;5009364;28;20236;-87
2023/10/07 14:00:35;;;;;;;6.33;4.30;;;;;;;;;;5014690;28;20557;-87
2023/10/07 14:03:19;;;;;;;6.57;4.63;;;;;;;;;;5015211;28;20189;-85
2023/10/07 14:05:48;;;;;;;8.13;4.83;;;;;;;;;;5015852;28;20197;-87
2023/10/07 14:08:15;;;;;;;6.23;4.80;;;;;;;;;;5015621;28;20268;-88
2023/10/07 14:10:47;;;;;;;8.60;5.63;;;;;;;;;;5018467;28;20183;-88
2023/10/07 14:13:15;;;;;;;7.50;6.17;;;;;;;;;;5006543;28;20256;-89
2023/10/07 14:15:41;;;;;;;10.33;6.10;;;;;;;;;;5013889;28;20278;-87
2023/10/07 14:18:07;;;;;;;7.80;5.57;;;;;;;;;;5014436;28;20317;-87
2023/10/07 14:20:33;;;;;;;8.90;5.17;;;;;;;;;;5013999;28;20288;-88
2023/10/07 14:22:59;;;;;;;7.13;5.13;;;;;;;;;;5015016;28;20186;-89
2023/10/07 14:25:26;;;;;;;9.60;5.30;;;;;;;;;;5018216;28;20250;-89
2023/10/07 14:27:53;;;;;;;6.20;5.10;;;;;;;;;;5012232;28;20195;-88
2023/10/07 14:30:22;;;;;;;8.20;5.47;;;;;;;;;;5021611;28;20637;-89
2023/10/07 14:32:48;;;;;;;6.23;4.73;;;;;;;;;;5020120;28;20183;-87
2023/10/07 14:35:14;;;;;;;6.10;4.03;;;;;;;;;;5022348;28;20192;-87
2023/10/07 14:37:42;;;;;;;7.23;4.27;;;;;;;;;;5017966;28;20658;-88
2023/10/07 14:40:12;;;;;;;8.43;4.17;;;;;;;;;;4996686;28;20191;-87
2023/10/07 14:42:40;;;;;;;5.33;3.97;;;;;;;;;;5012186;28;20190;-87
2023/10/07 14:45:07;;;;;;;4.57;3.77;;;;;;;;;;5017684;28;20304;-87
2023/10/07 14:47:33;;;;;;;6.77;4.03;;;;;;;;;;4998356;28;20179;-88
2023/10/07 14:50:00;;;;;;;6.10;4.10;;;;;;;;;;5016615;28;20182;-89
2023/10/07 14:52:27;;;;;;;4.77;4.13;;;;;;;;;;4994334;28;20171;-87
2023/10/07 14:54:54;;;;;;;5.57;4.13;;;;;;;;;;5009433;28;20187;-87
2023/10/07 14:57:21;;;;;;;4.57;3.60;;;;;;;;;;5010953;28;20294;-88
2023/10/07 14:59:47;;;;;;;6.47;4.13;;;;;;;;;;5012983;28;20198;-87
2023/10/07 15:02:13;;;;;;;6.00;4.47;;;;;;;;;;5014550;28;20269;-87
2023/10/07 15:04:41;;;;;;;7.47;4.47;;;;;;;;;;5015418;28;20195;-87
2023/10/07 15:07:08;;;;;;;10.33;4.27;;;;;;;;;;5014106;28;20183;-87
2023/10/07 15:09:36;;;;;;;5.53;4.27;;;;;;;;;;5016038;28;20288;-87
2023/10/07 15:12:07;;;;;;;5.27;4.00;;;;;;;;;;5014638;28;20194;-88
2023/10/07 15:14:34;;;;;;;5.03;3.63;;;;;;;;;;4997500;28;20264;-89
2023/10/07 15:20:05;;;;;;;7.23;4.13;;;;;;;;;;5011270;28;20285;-88
2023/10/07 15:22:32;;;;;;;6.57;3.83;;;;;;;;;;5013511;28;20189;-87
2023/10/07 15:24:59;;;;;;;6.17;4.10;;;;;;;;;;5010714;28;20175;-89
2023/10/07 15:27:28;;;;;;;5.13;3.67;;;;;;;;;;5009292;28;20686;-88
2023/10/07 15:29:56;;;;;;;6.47;4.03;;;;;;;;;;5012339;28;20589;-88
2023/10/07 15:32:22;;;;;;;5.27;4.57;;;;;;;;;;5009584;28;20179;-88
2023/10/07 15:34:49;;;;;;;8.83;5.00;;;;;;;;;;5007406;28;20187;-89
2023/10/07 15:37:16;;;;;;;6.50;4.83;;;;;;;;;;5012546;28;20205;-88
2023/10/07 15:39:42;;;;;;;7.37;4.40;;;;;;;;;;5013050;28;20634;-89
2023/10/07 15:42:11;;;;;;;7.43;4.37;;;;;;;;;;4994956;28;20423;-89
2023/10/07 15:44:37;;;;;;;4.97;4.30;;;;;;;;;;5013452;28;20175;-90
2023/10/07 15:47:04;;;;;;;6.23;4.17;;;;;;;;;;5015204;28;20554;-89
2023/10/07 15:49:31;;;;;;;6.10;4.27;;;;;;;;;;5017572;28;20571;-87
2023/10/07 15:51:57;;;;;;;6.07;4.37;;;;;;;;;;5019452;28;20248;-89